sensor_id;sensor_type;location;lat;lon;timestamp;P1;durP1;ratioP1;P2;durP2;ratioP2
62256;SDS011;48240;52.962;5.790;2022-12-29T04:57:54;2.65;;;0.90;;
62256;SDS011;48240;52.962;5.790;2022-12-29T05:00:20;2.95;;;0.80;;
62256;SDS011;48240;52.962;5.790;2022-12-29T05:02:46;1.58;;;0.60;;
62256;SDS011;48240;52.962;5.790;2022-12-29T05:05:12;1.98;;;0.60;;
62256;SDS011;48240;52.962;5.790;2022-12-29T05:07:38;2.25;;;0.73;;
62256;SDS011;48240;52.962;5.790;2022-12-29T05:10:05;1.35;;;0.50;;
62256;SDS011;48240;52.962;5.790;2022-12-29T05:12:31;4.43;;;0.93;;
62256;SDS011;48240;52.962;5.790;2022-12-29T05:14:58;2.55;;;0.70;;
62256;SDS011;48240;52.962;5.790;2022-12-29T05:17:24;3.45;;;0.82;;
62256;SDS011;48240;52.962;5.790;2022-12-29T05:19:50;3.83;;;0.93;;
62256;SDS011;48240;52.962;5.790;2022-12-29T05:22:16;2.60;;;0.60;;
62256;SDS011;48240;52.962;5.790;2022-12-29T05:24:42;2.72;;;0.77;;
62256;SDS011;48240;52.962;5.790;2022-12-29T05:27:09;2.17;;;0.70;;
62256;SDS011;48240;52.962;5.790;2022-12-29T05:29:35;3.42;;;0.70;;
62256;SDS011;48240;52.962;5.790;2022-12-29T05:32:01;4.05;;;0.90;;
62256;SDS011;48240;52.962;5.790;2022-12-29T05:34:27;4.88;;;0.90;;
62256;SDS011;48240;52.962;5.790;2022-12-29T05:36:53;5.13;;;0.80;;
62256;SDS011;48240;52.962;5.790;2022-12-29T05:39:19;3.47;;;0.80;;
62256;SDS011;48240;52.962;5.790;2022-12-29T05:41:45;3.05;;;0.75;;
62256;SDS011;48240;52.962;5.790;2022-12-29T05:44:11;4.47;;;0.80;;
62256;SDS011;48240;52.962;5.790;2022-12-29T05:46:37;7.18;;;1.00;;
62256;SDS011;48240;52.962;5.790;2022-12-29T05:49:04;4.20;;;0.85;;
62256;SDS011;48240;52.962;5.790;2022-12-29T05:51:30;4.70;;;1.13;;
62256;SDS011;48240;52.962;5.790;2022-12-29T05:53:56;5.30;;;0.90;;
62256;SDS011;48240;52.962;5.790;2022-12-29T05:56:22;6.18;;;1.15;;
62256;SDS011;48240;52.962;5.790;2022-12-29T05:58:48;3.13;;;0.70;;
62256;SDS011;48240;52.962;5.790;2022-12-29T06:01:14;4.90;;;1.10;;
62256;SDS011;48240;52.962;5.790;2022-12-29T06:03:41;4.22;;;0.93;;
62256;SDS011;48240;52.962;5.790;2022-12-29T06:06:07;3.97;;;1.00;;
62256;SDS011;48240;52.962;5.790;2022-12-29T06:08:33;4.00;;;0.90;;
62256;SDS011;48240;52.962;5.790;2022-12-29T06:10:59;7.25;;;1.15;;
62256;SDS011;48240;52.962;5.790;2022-12-29T06:13:25;5.88;;;1.52;;
62256;SDS011;48240;52.962;5.790;2022-12-29T06:15:52;6.38;;;1.00;;
62256;SDS011;48240;52.962;5.790;2022-12-29T06:18:18;5.57;;;1.02;;
62256;SDS011;48240;52.962;5.790;2022-12-29T06:20:44;3.63;;;1.05;;
62256;SDS011;48240;52.962;5.790;2022-12-29T06:23:10;3.60;;;0.80;;
62256;SDS011;48240;52.962;5.790;2022-12-29T06:25:40;4.95;;;1.02;;
62256;SDS011;48240;52.962;5.790;2022-12-29T06:28:06;4.60;;;1.02;;
62256;SDS011;48240;52.962;5.790;2022-12-29T06:30:32;8.48;;;1.40;;
62256;SDS011;48240;52.962;5.790;2022-12-29T06:32:58;5.63;;;1.00;;
62256;SDS011;48240;52.962;5.790;2022-12-29T06:35:24;5.63;;;1.30;;
62256;SDS011;48240;52.962;5.790;2022-12-29T06:37:51;6.72;;;1.20;;
62256;SDS011;48240;52.962;5.790;2022-12-29T06:40:17;6.45;;;1.20;;
62256;SDS011;48240;52.962;5.790;2022-12-29T06:42:43;6.50;;;1.13;;
62256;SDS011;48240;52.962;5.790;2022-12-29T06:45:09;6.97;;;1.17;;
62256;SDS011;48240;52.962;5.790;2022-12-29T06:47:35;6.72;;;1.17;;
62256;SDS011;48240;52.962;5.790;2022-12-29T06:50:02;6.68;;;1.42;;
62256;SDS011;48240;52.962;5.790;2022-12-29T06:52:28;6.63;;;1.52;;
62256;SDS011;48240;52.962;5.790;2022-12-29T06:54:54;9.45;;;1.50;;
62256;SDS011;48240;52.962;5.790;2022-12-29T06:57:20;9.55;;;1.58;;
62256;SDS011;48240;52.962;5.790;2022-12-29T06:59:47;7.25;;;0.95;;
62256;SDS011;48240;52.962;5.790;2022-12-29T07:02:13;8.00;;;1.65;;
62256;SDS011;48240;52.962;5.790;2022-12-29T07:04:39;8.88;;;1.35;;
62256;SDS011;48240;52.962;5.790;2022-12-29T07:07:06;7.25;;;1.15;;
62256;SDS011;48240;52.962;5.790;2022-12-29T07:09:32;8.45;;;1.40;;
62256;SDS011;48240;52.962;5.790;2022-12-29T07:11:58;6.38;;;1.20;;
62256;SDS011;48240;52.962;5.790;2022-12-29T07:14:24;5.70;;;1.25;;
62256;SDS011;48240;52.962;5.790;2022-12-29T07:16:50;6.28;;;1.52;;
62256;SDS011;48240;52.962;5.790;2022-12-29T07:19:16;7.45;;;1.70;;
62256;SDS011;48240;52.962;5.790;2022-12-29T07:21:42;7.18;;;1.70;;
62256;SDS011;48240;52.962;5.790;2022-12-29T07:24:08;6.57;;;1.50;;
62256;SDS011;48240;52.962;5.790;2022-12-29T07:26:35;7.40;;;1.50;;
62256;SDS011;48240;52.962;5.790;2022-12-29T07:29:01;8.77;;;1.40;;
62256;SDS011;48240;52.962;5.790;2022-12-29T07:31:27;6.07;;;1.17;;
62256;SDS011;48240;52.962;5.790;2022-12-29T07:33:54;7.38;;;1.65;;
62256;SDS011;48240;52.962;5.790;2022-12-29T07:36:20;9.02;;;1.67;;
62256;SDS011;48240;52.962;5.790;2022-12-29T07:38:46;8.68;;;1.55;;
62256;SDS011;48240;52.962;5.790;2022-12-29T07:41:12;6.38;;;1.33;;
62256;SDS011;48240;52.962;5.790;2022-12-29T07:43:38;7.47;;;1.45;;
62256;SDS011;48240;52.962;5.790;2022-12-29T07:46:05;7.18;;;1.40;;
62256;SDS011;48240;52.962;5.790;2022-12-29T07:48:31;8.80;;;1.73;;
62256;SDS011;48240;52.962;5.790;2022-12-29T07:50:59;9.57;;;1.70;;
62256;SDS011;48240;52.962;5.790;2022-12-29T07:53:25;8.25;;;1.35;;
62256;SDS011;48240;52.962;5.790;2022-12-29T07:55:51;5.78;;;1.27;;
62256;SDS011;48240;52.962;5.790;2022-12-29T07:58:17;6.38;;;1.40;;
62256;SDS011;48240;52.962;5.790;2022-12-29T08:00:43;9.48;;;1.83;;
62256;SDS011;48240;52.962;5.790;2022-12-29T08:03:09;8.30;;;1.65;;
62256;SDS011;48240;52.962;5.790;2022-12-29T08:05:36;8.32;;;1.67;;
62256;SDS011;48240;52.962;5.790;2022-12-29T08:08:02;9.57;;;1.80;;
62256;SDS011;48240;52.962;5.790;2022-12-29T08:10:28;8.50;;;1.92;;
62256;SDS011;48240;52.962;5.790;2022-12-29T08:12:54;10.38;;;1.48;;
62256;SDS011;48240;52.962;5.790;2022-12-29T08:15:20;11.27;;;2.00;;
62256;SDS011;48240;52.962;5.790;2022-12-29T08:17:46;10.07;;;1.65;;
62256;SDS011;48240;52.962;5.790;2022-12-29T08:20:12;9.02;;;1.65;;
62256;SDS011;48240;52.962;5.790;2022-12-29T08:22:39;6.80;;;1.40;;
62256;SDS011;48240;52.962;5.790;2022-12-29T08:25:05;9.52;;;1.90;;
62256;SDS011;48240;52.962;5.790;2022-12-29T08:27:31;11.60;;;2.42;;
62256;SDS011;48240;52.962;5.790;2022-12-29T08:29:57;7.40;;;1.48;;
62256;SDS011;48240;52.962;5.790;2022-12-29T08:32:25;10.13;;;1.73;;
62256;SDS011;48240;52.962;5.790;2022-12-29T08:34:53;8.85;;;1.73;;
62256;SDS011;48240;52.962;5.790;2022-12-29T08:37:19;11.45;;;1.90;;
62256;SDS011;48240;52.962;5.790;2022-12-29T08:39:45;9.98;;;2.03;;
62256;SDS011;48240;52.962;5.790;2022-12-29T08:42:11;9.95;;;1.85;;
62256;SDS011;48240;52.962;5.790;2022-12-29T08:44:37;8.05;;;1.42;;
62256;SDS011;48240;52.962;5.790;2022-12-29T08:47:03;8.00;;;2.15;;
62256;SDS011;48240;52.962;5.790;2022-12-29T08:49:30;10.73;;;1.63;;
62256;SDS011;48240;52.962;5.790;2022-12-29T08:51:56;11.13;;;1.98;;
62256;SDS011;48240;52.962;5.790;2022-12-29T08:54:22;13.00;;;2.10;;
62256;SDS011;48240;52.962;5.790;2022-12-29T08:56:48;9.05;;;2.22;;
62256;SDS011;48240;52.962;5.790;2022-12-29T08:59:14;8.65;;;1.58;;
62256;SDS011;48240;52.962;5.790;2022-12-29T09:01:40;11.02;;;2.20;;
62256;SDS011;48240;52.962;5.790;2022-12-29T09:04:07;10.18;;;2.10;;
62256;SDS011;48240;52.962;5.790;2022-12-29T09:06:33;11.77;;;2.08;;
62256;SDS011;48240;52.962;5.790;2022-12-29T09:08:59;10.27;;;2.00;;
62256;SDS011;48240;52.962;5.790;2022-12-29T09:11:25;13.35;;;2.13;;
62256;SDS011;48240;52.962;5.790;2022-12-29T09:13:52;8.85;;;1.85;;
62256;SDS011;48240;52.962;5.790;2022-12-29T09:16:18;9.73;;;1.83;;
62256;SDS011;48240;52.962;5.790;2022-12-29T09:18:44;12.60;;;2.22;;
62256;SDS011;48240;52.962;5.790;2022-12-29T09:21:11;10.63;;;1.80;;
62256;SDS011;48240;52.962;5.790;2022-12-29T09:23:38;9.70;;;1.85;;
62256;SDS011;48240;52.962;5.790;2022-12-29T09:26:05;9.02;;;2.17;;
62256;SDS011;48240;52.962;5.790;2022-12-29T09:28:32;11.00;;;2.20;;
62256;SDS011;48240;52.962;5.790;2022-12-29T09:30:59;9.75;;;1.90;;
62256;SDS011;48240;52.962;5.790;2022-12-29T09:33:25;8.40;;;1.88;;
62256;SDS011;48240;52.962;5.790;2022-12-29T09:35:52;9.75;;;1.73;;
62256;SDS011;48240;52.962;5.790;2022-12-29T09:38:19;9.55;;;1.75;;
62256;SDS011;48240;52.962;5.790;2022-12-29T09:40:48;8.82;;;1.65;;
62256;SDS011;48240;52.962;5.790;2022-12-29T09:45:50;9.65;;;1.80;;
62256;SDS011;48240;52.962;5.790;2022-12-29T09:48:29;8.20;;;1.77;;
62256;SDS011;48240;52.962;5.790;2022-12-29T09:51:00;7.78;;;1.95;;
62256;SDS011;48240;52.962;5.790;2022-12-29T09:53:41;6.32;;;1.77;;
62256;SDS011;48240;52.962;5.790;2022-12-29T09:56:13;9.52;;;1.77;;
62256;SDS011;48240;52.962;5.790;2022-12-29T10:03:55;8.27;;;1.75;;
62256;SDS011;48240;52.962;5.790;2022-12-29T10:06:22;8.70;;;1.90;;
62256;SDS011;48240;52.962;5.790;2022-12-29T10:09:13;8.15;;;2.05;;
62256;SDS011;48240;52.962;5.790;2022-12-29T10:24:34;9.32;;;1.90;;
62256;SDS011;48240;52.962;5.790;2022-12-29T10:27:03;9.18;;;1.67;;
62256;SDS011;48240;52.962;5.790;2022-12-29T10:29:32;9.05;;;3.05;;
62256;SDS011;48240;52.962;5.790;2022-12-29T10:32:02;17.42;;;6.85;;
62256;SDS011;48240;52.962;5.790;2022-12-29T10:34:34;21.98;;;9.30;;
62256;SDS011;48240;52.962;5.790;2022-12-29T10:44:35;30.42;;;14.15;;
62256;SDS011;48240;52.962;5.790;2022-12-29T10:47:05;28.80;;;15.70;;
62256;SDS011;48240;52.962;5.790;2022-12-29T10:49:32;37.90;;;18.80;;
62256;SDS011;48240;52.962;5.790;2022-12-29T10:52:02;41.42;;;21.02;;
62256;SDS011;48240;52.962;5.790;2022-12-29T10:54:30;49.75;;;25.88;;
62256;SDS011;48240;52.962;5.790;2022-12-29T10:57:01;51.60;;;25.80;;
62256;SDS011;48240;52.962;5.790;2022-12-29T11:07:02;56.97;;;32.60;;
62256;SDS011;48240;52.962;5.790;2022-12-29T11:09:29;60.03;;;33.38;;
62256;SDS011;48240;52.962;5.790;2022-12-29T11:11:57;62.40;;;35.10;;
62256;SDS011;48240;52.962;5.790;2022-12-29T11:14:27;62.78;;;36.08;;
62256;SDS011;48240;52.962;5.790;2022-12-29T11:16:58;69.55;;;39.22;;
62256;SDS011;48240;52.962;5.790;2022-12-29T11:19:25;72.95;;;39.67;;
62256;SDS011;48240;52.962;5.790;2022-12-29T11:21:51;74.65;;;42.00;;
62256;SDS011;48240;52.962;5.790;2022-12-29T11:24:22;70.05;;;40.33;;
62256;SDS011;48240;52.962;5.790;2022-12-29T11:26:52;76.35;;;43.58;;
62256;SDS011;48240;52.962;5.790;2022-12-29T11:29:26;77.45;;;42.92;;
62256;SDS011;48240;52.962;5.790;2022-12-29T11:31:57;86.90;;;42.33;;
62256;SDS011;48240;52.962;5.790;2022-12-29T11:37:41;68.53;;;38.88;;
62256;SDS011;48240;52.962;5.790;2022-12-29T11:39:56;68.78;;;38.67;;
62256;SDS011;48240;52.962;5.790;2022-12-29T11:42:24;73.45;;;40.65;;
62256;SDS011;48240;52.962;5.790;2022-12-29T11:44:55;64.70;;;37.08;;
62256;SDS011;48240;52.962;5.790;2022-12-29T11:47:30;65.70;;;35.50;;
62256;SDS011;48240;52.962;5.790;2022-12-29T11:50:02;61.83;;;35.78;;
62256;SDS011;48240;52.962;5.790;2022-12-29T11:52:29;59.92;;;34.35;;
62256;SDS011;48240;52.962;5.790;2022-12-29T11:54:58;54.78;;;32.60;;
62256;SDS011;48240;52.962;5.790;2022-12-29T11:57:26;56.88;;;30.88;;
62256;SDS011;48240;52.962;5.790;2022-12-29T11:59:53;52.25;;;30.95;;
62256;SDS011;48240;52.962;5.790;2022-12-29T12:04:47;55.78;;;28.80;;
62256;SDS011;48240;52.962;5.790;2022-12-29T12:07:15;50.95;;;27.63;;
62256;SDS011;48240;52.962;5.790;2022-12-29T12:09:43;43.15;;;25.90;;
62256;SDS011;48240;52.962;5.790;2022-12-29T12:12:15;47.55;;;26.50;;
62256;SDS011;48240;52.962;5.790;2022-12-29T12:14:51;47.17;;;24.38;;
62256;SDS011;48240;52.962;5.790;2022-12-29T12:17:27;44.42;;;24.00;;
62256;SDS011;48240;52.962;5.790;2022-12-29T12:22:31;44.47;;;23.80;;
62256;SDS011;48240;52.962;5.790;2022-12-29T12:27:46;38.58;;;22.40;;
62256;SDS011;48240;52.962;5.790;2022-12-29T12:30:21;36.33;;;20.52;;
62256;SDS011;48240;52.962;5.790;2022-12-29T12:33:06;38.63;;;20.08;;
62256;SDS011;48240;52.962;5.790;2022-12-29T12:38:26;34.83;;;19.25;;
62256;SDS011;48240;52.962;5.790;2022-12-29T12:49:03;32.25;;;15.20;;
62256;SDS011;48240;52.962;5.790;2022-12-29T12:54:13;27.75;;;15.18;;
62256;SDS011;48240;52.962;5.790;2022-12-29T12:56:47;27.05;;;14.45;;
62256;SDS011;48240;52.962;5.790;2022-12-29T13:02:27;26.35;;;13.93;;
62256;SDS011;48240;52.962;5.790;2022-12-29T13:07:44;26.08;;;12.60;;
62256;SDS011;48240;52.962;5.790;2022-12-29T13:20:25;26.63;;;12.00;;
62256;SDS011;48240;52.962;5.790;2022-12-29T13:22:58;22.42;;;10.82;;
62256;SDS011;48240;52.962;5.790;2022-12-29T13:25:33;21.42;;;10.70;;
62256;SDS011;48240;52.962;5.790;2022-12-29T13:28:02;22.88;;;10.13;;
62256;SDS011;48240;52.962;5.790;2022-12-29T13:30:37;20.17;;;9.63;;
62256;SDS011;48240;52.962;5.790;2022-12-29T13:38:07;20.92;;;9.68;;
62256;SDS011;48240;52.962;5.790;2022-12-29T13:40:36;21.70;;;9.80;;
62256;SDS011;48240;52.962;5.790;2022-12-29T13:43:04;23.65;;;9.88;;
62256;SDS011;48240;52.962;5.790;2022-12-29T13:45:31;22.00;;;9.20;;
62256;SDS011;48240;52.962;5.790;2022-12-29T13:48:03;19.67;;;8.38;;
62256;SDS011;48240;52.962;5.790;2022-12-29T13:50:29;17.15;;;8.25;;
62256;SDS011;48240;52.962;5.790;2022-12-29T13:55:45;20.25;;;7.95;;
62256;SDS011;48240;52.962;5.790;2022-12-29T14:08:35;16.13;;;7.25;;
62256;SDS011;48240;52.962;5.790;2022-12-29T14:11:05;14.20;;;6.97;;
62256;SDS011;48240;52.962;5.790;2022-12-29T14:13:33;14.32;;;7.07;;
62256;SDS011;48240;52.962;5.790;2022-12-29T14:16:02;18.00;;;7.40;;
62256;SDS011;48240;52.962;5.790;2022-12-29T14:18:29;17.00;;;6.40;;
62256;SDS011;48240;52.962;5.790;2022-12-29T14:23:39;14.18;;;6.93;;
62256;SDS011;48240;52.962;5.790;2022-12-29T14:31:01;16.08;;;6.28;;
62256;SDS011;48240;52.962;5.790;2022-12-29T14:33:32;14.02;;;5.88;;
62256;SDS011;48240;52.962;5.790;2022-12-29T14:38:44;13.93;;;5.28;;
62256;SDS011;48240;52.962;5.790;2022-12-29T14:41:17;15.88;;;6.20;;
62256;SDS011;48240;52.962;5.790;2022-12-29T14:43:54;16.00;;;5.80;;
62256;SDS011;48240;52.962;5.790;2022-12-29T14:46:21;18.00;;;5.72;;
62256;SDS011;48240;52.962;5.790;2022-12-29T14:48:47;13.00;;;4.95;;
62256;SDS011;48240;52.962;5.790;2022-12-29T14:51:26;14.50;;;5.35;;
62256;SDS011;48240;52.962;5.790;2022-12-29T14:53:54;17.27;;;5.30;;
62256;SDS011;48240;52.962;5.790;2022-12-29T14:56:24;11.93;;;5.05;;
62256;SDS011;48240;52.962;5.790;2022-12-29T14:58:52;15.38;;;4.82;;
62256;SDS011;48240;52.962;5.790;2022-12-29T15:01:23;11.55;;;5.03;;
62256;SDS011;48240;52.962;5.790;2022-12-29T15:03:51;12.20;;;4.68;;
62256;SDS011;48240;52.962;5.790;2022-12-29T15:06:19;14.73;;;4.68;;
62256;SDS011;48240;52.962;5.790;2022-12-29T15:11:14;12.57;;;4.60;;
62256;SDS011;48240;52.962;5.790;2022-12-29T15:13:42;9.48;;;4.68;;
62256;SDS011;48240;52.962;5.790;2022-12-29T15:18:46;13.20;;;4.20;;
62256;SDS011;48240;52.962;5.790;2022-12-29T15:21:13;13.15;;;4.45;;
62256;SDS011;48240;52.962;5.790;2022-12-29T15:23:40;12.13;;;4.03;;
62256;SDS011;48240;52.962;5.790;2022-12-29T15:26:08;11.35;;;4.10;;
62256;SDS011;48240;52.962;5.790;2022-12-29T15:28:38;10.15;;;3.78;;
62256;SDS011;48240;52.962;5.790;2022-12-29T15:31:06;13.18;;;3.95;;
62256;SDS011;48240;52.962;5.790;2022-12-29T15:33:38;20.10;;;4.30;;
62256;SDS011;48240;52.962;5.790;2022-12-29T15:36:09;14.77;;;3.97;;
62256;SDS011;48240;52.962;5.790;2022-12-29T15:38:36;19.60;;;3.42;;
62256;SDS011;48240;52.962;5.790;2022-12-29T15:41:04;9.75;;;3.60;;
62256;SDS011;48240;52.962;5.790;2022-12-29T15:43:43;14.45;;;3.58;;
62256;SDS011;48240;52.962;5.790;2022-12-29T15:46:11;12.30;;;3.57;;
62256;SDS011;48240;52.962;5.790;2022-12-29T15:48:38;16.42;;;3.90;;
62256;SDS011;48240;52.962;5.790;2022-12-29T15:51:10;11.23;;;3.28;;
62256;SDS011;48240;52.962;5.790;2022-12-29T15:53:40;12.77;;;3.03;;
62256;SDS011;48240;52.962;5.790;2022-12-29T15:56:07;11.23;;;2.80;;
62256;SDS011;48240;52.962;5.790;2022-12-29T15:58:45;13.05;;;3.10;;
62256;SDS011;48240;52.962;5.790;2022-12-29T16:01:32;12.18;;;2.95;;
62256;SDS011;48240;52.962;5.790;2022-12-29T16:03:58;11.40;;;3.03;;
62256;SDS011;48240;52.962;5.790;2022-12-29T16:08:58;10.57;;;2.95;;
62256;SDS011;48240;52.962;5.790;2022-12-29T16:11:26;9.80;;;2.55;;
62256;SDS011;48240;52.962;5.790;2022-12-29T16:13:53;7.85;;;3.05;;
62256;SDS011;48240;52.962;5.790;2022-12-29T16:16:24;8.30;;;2.45;;
62256;SDS011;48240;52.962;5.790;2022-12-29T16:23:50;9.30;;;2.20;;
62256;SDS011;48240;52.962;5.790;2022-12-29T16:26:17;7.95;;;2.60;;
62256;SDS011;48240;52.962;5.790;2022-12-29T16:28:44;9.23;;;2.33;;
62256;SDS011;48240;52.962;5.790;2022-12-29T16:31:22;11.80;;;2.10;;
62256;SDS011;48240;52.962;5.790;2022-12-29T16:33:52;8.30;;;2.40;;
62256;SDS011;48240;52.962;5.790;2022-12-29T16:36:26;10.38;;;2.40;;
62256;SDS011;48240;52.962;5.790;2022-12-29T16:39:15;12.68;;;2.20;;
62256;SDS011;48240;52.962;5.790;2022-12-29T16:41:46;7.80;;;2.10;;
62256;SDS011;48240;52.962;5.790;2022-12-29T16:44:16;9.60;;;2.05;;
62256;SDS011;48240;52.962;5.790;2022-12-29T16:46:44;9.27;;;2.30;;
62256;SDS011;48240;52.962;5.790;2022-12-29T16:49:22;8.65;;;2.10;;
62256;SDS011;48240;52.962;5.790;2022-12-29T16:51:48;6.47;;;2.05;;
62256;SDS011;48240;52.962;5.790;2022-12-29T16:54:19;8.20;;;2.08;;
62256;SDS011;48240;52.962;5.790;2022-12-29T16:56:46;8.32;;;2.00;;
62256;SDS011;48240;52.962;5.790;2022-12-29T17:01:42;8.15;;;2.00;;
62256;SDS011;48240;52.962;5.790;2022-12-29T17:04:10;8.18;;;1.80;;
62256;SDS011;48240;52.962;5.790;2022-12-29T17:06:36;12.27;;;2.40;;
62256;SDS011;48240;52.962;5.790;2022-12-29T17:09:10;16.95;;;8.63;;
62256;SDS011;48240;52.962;5.790;2022-12-29T17:11:40;24.23;;;5.43;;
62256;SDS011;48240;52.962;5.790;2022-12-29T17:17:01;10.57;;;3.13;;
62256;SDS011;48240;52.962;5.790;2022-12-29T17:19:32;15.63;;;3.10;;
62256;SDS011;48240;52.962;5.790;2022-12-29T17:21:59;10.00;;;3.22;;
62256;SDS011;48240;52.962;5.790;2022-12-29T17:24:25;17.45;;;3.40;;
62256;SDS011;48240;52.962;5.790;2022-12-29T17:26:52;8.85;;;2.97;;
62256;SDS011;48240;52.962;5.790;2022-12-29T17:29:40;10.45;;;2.92;;
62256;SDS011;48240;52.962;5.790;2022-12-29T17:32:09;11.02;;;3.00;;
62256;SDS011;48240;52.962;5.790;2022-12-29T17:37:09;12.10;;;2.60;;
62256;SDS011;48240;52.962;5.790;2022-12-29T17:39:39;18.85;;;2.80;;
62256;SDS011;48240;52.962;5.790;2022-12-29T17:42:06;14.43;;;2.83;;
62256;SDS011;48240;52.962;5.790;2022-12-29T17:44:33;17.02;;;3.50;;
62256;SDS011;48240;52.962;5.790;2022-12-29T17:46:59;9.15;;;2.28;;
62256;SDS011;48240;52.962;5.790;2022-12-29T17:49:26;12.85;;;2.63;;
62256;SDS011;48240;52.962;5.790;2022-12-29T17:51:53;12.32;;;2.45;;
62256;SDS011;48240;52.962;5.790;2022-12-29T17:54:20;9.27;;;2.22;;
62256;SDS011;48240;52.962;5.790;2022-12-29T17:56:46;14.25;;;2.60;;
62256;SDS011;48240;52.962;5.790;2022-12-29T17:59:12;11.90;;;2.38;;
62256;SDS011;48240;52.962;5.790;2022-12-29T18:01:40;9.88;;;2.30;;
62256;SDS011;48240;52.962;5.790;2022-12-29T18:04:07;10.50;;;2.22;;
62256;SDS011;48240;52.962;5.790;2022-12-29T18:06:35;7.78;;;2.20;;
62256;SDS011;48240;52.962;5.790;2022-12-29T18:09:01;10.82;;;2.40;;
62256;SDS011;48240;52.962;5.790;2022-12-29T18:11:27;10.90;;;2.30;;
62256;SDS011;48240;52.962;5.790;2022-12-29T18:13:53;11.18;;;2.42;;
62256;SDS011;48240;52.962;5.790;2022-12-29T18:16:20;12.82;;;2.40;;
62256;SDS011;48240;52.962;5.790;2022-12-29T18:18:46;11.10;;;2.55;;
62256;SDS011;48240;52.962;5.790;2022-12-29T18:21:17;10.10;;;1.88;;
62256;SDS011;48240;52.962;5.790;2022-12-29T18:23:43;9.60;;;2.53;;
62256;SDS011;48240;52.962;5.790;2022-12-29T18:28:36;11.32;;;2.22;;
62256;SDS011;48240;52.962;5.790;2022-12-29T18:31:02;10.40;;;2.60;;
62256;SDS011;48240;52.962;5.790;2022-12-29T18:33:28;12.07;;;2.38;;
62256;SDS011;48240;52.962;5.790;2022-12-29T18:35:56;9.95;;;2.00;;
62256;SDS011;48240;52.962;5.790;2022-12-29T18:38:22;8.88;;;2.00;;
62256;SDS011;48240;52.962;5.790;2022-12-29T18:40:48;11.23;;;2.35;;
62256;SDS011;48240;52.962;5.790;2022-12-29T18:43:15;10.57;;;2.15;;
62256;SDS011;48240;52.962;5.790;2022-12-29T18:45:42;11.35;;;2.15;;
62256;SDS011;48240;52.962;5.790;2022-12-29T18:48:11;10.30;;;2.00;;
62256;SDS011;48240;52.962;5.790;2022-12-29T18:50:38;15.35;;;2.85;;
62256;SDS011;48240;52.962;5.790;2022-12-29T18:53:04;12.38;;;2.45;;
62256;SDS011;48240;52.962;5.790;2022-12-29T18:55:30;10.02;;;1.80;;
62256;SDS011;48240;52.962;5.790;2022-12-29T18:57:56;9.25;;;2.08;;
62256;SDS011;48240;52.962;5.790;2022-12-29T19:00:22;9.30;;;1.80;;
62256;SDS011;48240;52.962;5.790;2022-12-29T19:02:49;9.48;;;2.47;;
62256;SDS011;48240;52.962;5.790;2022-12-29T19:07:42;12.30;;;2.13;;
62256;SDS011;48240;52.962;5.790;2022-12-29T19:10:08;10.82;;;2.28;;
62256;SDS011;48240;52.962;5.790;2022-12-29T19:12:34;11.98;;;2.45;;
62256;SDS011;48240;52.962;5.790;2022-12-29T19:15:00;9.35;;;2.53;;
62256;SDS011;48240;52.962;5.790;2022-12-29T19:17:31;11.73;;;2.25;;
62256;SDS011;48240;52.962;5.790;2022-12-29T19:19:57;11.95;;;2.45;;
62256;SDS011;48240;52.962;5.790;2022-12-29T19:22:23;14.63;;;2.15;;
62256;SDS011;48240;52.962;5.790;2022-12-29T19:24:49;16.95;;;6.50;;
62256;SDS011;48240;52.962;5.790;2022-12-29T19:27:15;14.73;;;4.15;;
62256;SDS011;48240;52.962;5.790;2022-12-29T19:29:41;11.63;;;3.00;;
62256;SDS011;48240;52.962;5.790;2022-12-29T19:32:07;12.65;;;2.85;;
62256;SDS011;48240;52.962;5.790;2022-12-29T19:34:33;21.27;;;3.00;;
62256;SDS011;48240;52.962;5.790;2022-12-29T19:36:59;24.48;;;3.13;;
62256;SDS011;48240;52.962;5.790;2022-12-29T19:39:25;22.15;;;2.85;;
62256;SDS011;48240;52.962;5.790;2022-12-29T19:41:53;14.05;;;2.78;;
62256;SDS011;48240;52.962;5.790;2022-12-29T19:44:19;15.05;;;2.65;;
62256;SDS011;48240;52.962;5.790;2022-12-29T19:46:46;10.20;;;2.42;;
62256;SDS011;48240;52.962;5.790;2022-12-29T19:49:12;22.13;;;2.90;;
62256;SDS011;48240;52.962;5.790;2022-12-29T19:51:38;18.88;;;3.05;;
62256;SDS011;48240;52.962;5.790;2022-12-29T19:54:04;14.13;;;2.85;;
62256;SDS011;48240;52.962;5.790;2022-12-29T19:56:30;12.68;;;2.30;;
62256;SDS011;48240;52.962;5.790;2022-12-29T19:58:56;14.45;;;2.80;;
62256;SDS011;48240;52.962;5.790;2022-12-29T20:01:23;15.88;;;2.55;;
62256;SDS011;48240;52.962;5.790;2022-12-29T20:03:49;13.65;;;2.72;;
62256;SDS011;48240;52.962;5.790;2022-12-29T20:06:15;10.93;;;2.35;;
62256;SDS011;48240;52.962;5.790;2022-12-29T20:08:42;10.65;;;2.05;;
62256;SDS011;48240;52.962;5.790;2022-12-29T20:11:10;9.63;;;2.13;;
62256;SDS011;48240;52.962;5.790;2022-12-29T20:13:37;10.95;;;2.15;;
62256;SDS011;48240;52.962;5.790;2022-12-29T20:16:05;17.92;;;2.55;;
62256;SDS011;48240;52.962;5.790;2022-12-29T20:18:32;16.08;;;2.55;;
62256;SDS011;48240;52.962;5.790;2022-12-29T20:21:03;11.30;;;2.00;;
62256;SDS011;48240;52.962;5.790;2022-12-29T20:23:30;15.53;;;2.20;;
62256;SDS011;48240;52.962;5.790;2022-12-29T20:25:57;13.52;;;2.50;;
62256;SDS011;48240;52.962;5.790;2022-12-29T20:28:24;14.10;;;2.45;;
62256;SDS011;48240;52.962;5.790;2022-12-29T20:31:01;16.05;;;2.20;;
62256;SDS011;48240;52.962;5.790;2022-12-29T20:33:28;11.63;;;2.08;;
62256;SDS011;48240;52.962;5.790;2022-12-29T20:36:02;12.60;;;2.58;;
62256;SDS011;48240;52.962;5.790;2022-12-29T20:38:29;11.00;;;2.60;;
62256;SDS011;48240;52.962;5.790;2022-12-29T20:40:55;11.48;;;2.10;;
62256;SDS011;48240;52.962;5.790;2022-12-29T20:43:21;15.30;;;2.38;;
62256;SDS011;48240;52.962;5.790;2022-12-29T20:45:47;13.95;;;3.05;;
62256;SDS011;48240;52.962;5.790;2022-12-29T20:48:13;13.68;;;2.38;;
62256;SDS011;48240;52.962;5.790;2022-12-29T20:50:39;11.73;;;2.28;;
62256;SDS011;48240;52.962;5.790;2022-12-29T20:53:06;12.68;;;2.38;;
62256;SDS011;48240;52.962;5.790;2022-12-29T20:55:32;10.63;;;2.70;;
62256;SDS011;48240;52.962;5.790;2022-12-29T20:57:59;13.30;;;2.60;;
62256;SDS011;48240;52.962;5.790;2022-12-29T21:00:26;13.45;;;2.70;;
62256;SDS011;48240;52.962;5.790;2022-12-29T21:02:54;19.92;;;2.72;;
62256;SDS011;48240;52.962;5.790;2022-12-29T21:05:21;15.63;;;2.55;;
62256;SDS011;48240;52.962;5.790;2022-12-29T21:07:48;12.65;;;2.40;;
62256;SDS011;48240;52.962;5.790;2022-12-29T21:10:14;11.43;;;2.30;;
62256;SDS011;48240;52.962;5.790;2022-12-29T21:12:40;12.63;;;2.20;;
62256;SDS011;48240;52.962;5.790;2022-12-29T21:15:07;14.23;;;2.25;;
62256;SDS011;48240;52.962;5.790;2022-12-29T21:17:34;10.43;;;1.98;;
62256;SDS011;48240;52.962;5.790;2022-12-29T21:20:00;14.27;;;2.55;;
62256;SDS011;48240;52.962;5.790;2022-12-29T21:22:26;14.40;;;2.70;;
62256;SDS011;48240;52.962;5.790;2022-12-29T21:24:53;14.27;;;2.22;;
62256;SDS011;48240;52.962;5.790;2022-12-29T21:27:19;9.85;;;2.28;;
62256;SDS011;48240;52.962;5.790;2022-12-29T21:29:45;10.65;;;2.25;;
62256;SDS011;48240;52.962;5.790;2022-12-29T21:32:11;9.43;;;2.10;;
62256;SDS011;48240;52.962;5.790;2022-12-29T21:34:37;11.90;;;2.75;;
62256;SDS011;48240;52.962;5.790;2022-12-29T21:37:03;11.45;;;2.60;;
62256;SDS011;48240;52.962;5.790;2022-12-29T21:39:29;9.85;;;2.03;;
62256;SDS011;48240;52.962;5.790;2022-12-29T21:41:55;9.90;;;2.20;;
62256;SDS011;48240;52.962;5.790;2022-12-29T21:44:27;14.07;;;2.58;;
62256;SDS011;48240;52.962;5.790;2022-12-29T21:47:11;10.20;;;2.05;;
62256;SDS011;48240;52.962;5.790;2022-12-29T21:49:37;12.57;;;1.98;;